Time;durP1;ratioP1;P1;durP2;ratioP2;P2;SDS_P1;SDS_P2;PMS_P1;PMS_P2;Temp;Humidity;BMP_temperature;BMP_pressure;BME280_temperature;BME280_humidity;BME280_pressure;Samples;Min_cycle;Max_cycle;Signal;HPM_P1;HPM_P2
2021/05/29 00:01:12;;;;;;;8.30;6.88;;;10.00;99.90;;;;;;5111106;28;20032;-69
2021/05/29 00:03:38;;;;;;;10.43;7.47;;;10.00;99.90;;;;;;5111063;28;20023;-69
2021/05/29 00:06:04;;;;;;;9.23;7.38;;;10.00;99.90;;;;;;5110987;28;20031;-69
2021/05/29 00:08:29;;;;;;;10.40;7.05;;;9.90;99.90;;;;;;5110964;28;20376;-69
2021/05/29 00:10:57;;;;;;;10.35;7.10;;;9.90;99.90;;;;;;5109488;28;20401;-69
2021/05/29 00:13:25;;;;;;;9.23;6.35;;;9.90;99.90;;;;;;5110175;28;20500;-69
2021/05/29 00:15:51;;;;;;;10.65;7.13;;;9.90;99.90;;;;;;5110851;28;20024;-69
2021/05/29 00:18:17;;;;;;;10.38;7.85;;;9.80;99.90;;;;;;5110537;28;20027;-69
2021/05/29 00:20:43;;;;;;;11.10;7.60;;;9.80;99.90;;;;;;5110710;28;20031;-69
2021/05/29 00:23:12;;;;;;;12.85;7.95;;;9.80;99.90;;;;;;5110421;28;20030;-69
2021/05/29 00:25:38;;;;;;;11.07;7.75;;;9.80;99.90;;;;;;5099980;28;20099;-69
2021/05/29 00:28:04;;;;;;;11.82;7.60;;;9.70;99.90;;;;;;5096708;28;20024;-69
2021/05/29 00:30:30;;;;;;;10.50;7.75;;;9.60;99.90;;;;;;5096994;28;20532;-69
2021/05/29 00:32:56;;;;;;;13.57;7.88;;;9.60;99.90;;;;;;5096816;28;20028;-69
2021/05/29 00:35:22;;;;;;;12.35;8.32;;;9.50;99.90;;;;;;5096862;28;20078;-69
2021/05/29 00:37:48;;;;;;;13.82;8.90;;;9.50;99.90;;;;;;5097385;28;20357;-69
2021/05/29 00:40:14;;;;;;;12.25;8.25;;;9.40;99.90;;;;;;5096761;28;20430;-69
2021/05/29 00:42:40;;;;;;;16.30;8.02;;;9.30;99.90;;;;;;5096744;28;20047;-71
2021/05/29 00:45:06;;;;;;;13.23;8.55;;;9.30;99.90;;;;;;5096380;28;20031;-69
2021/05/29 00:47:32;;;;;;;9.18;8.05;;;9.20;99.90;;;;;;5096360;28;20496;-69
2021/05/29 00:50:01;;;;;;;12.25;8.02;;;9.20;99.90;;;;;;5096606;28;20106;-69
2021/05/29 00:52:27;;;;;;;12.57;8.90;;;9.10;99.90;;;;;;5096465;28;20080;-69
2021/05/29 00:54:54;;;;;;;10.55;8.50;;;9.10;99.90;;;;;;5096223;28;20032;-69
2021/05/29 00:57:20;;;;;;;15.40;10.40;;;9.10;99.90;;;;;;5096190;28;20035;-69
2021/05/29 00:59:46;;;;;;;18.10;12.88;;;9.00;99.90;;;;;;5095852;28;20016;-69
2021/05/29 01:02:14;;;;;;;19.38;14.05;;;9.10;99.90;;;;;;5096367;28;20081;-69
2021/05/29 01:04:41;;;;;;;17.08;13.07;;;9.10;99.90;;;;;;5095985;28;20032;-69
2021/05/29 01:07:13;;;;;;;19.98;13.10;;;9.10;99.90;;;;;;5095701;28;20024;-69
2021/05/29 01:09:41;;;;;;;20.48;14.02;;;9.00;99.90;;;;;;5094778;28;20117;-69
2021/05/29 01:12:09;;;;;;;18.95;13.23;;;9.00;99.90;;;;;;5095903;28;20039;-69
2021/05/29 01:14:39;;;;;;;20.50;13.88;;;9.00;99.90;;;;;;5095367;28;20040;-69
2021/05/29 01:17:05;;;;;;;22.00;13.55;;;8.90;99.90;;;;;;5096079;28;20032;-69
2021/05/29 01:19:31;;;;;;;22.27;14.27;;;8.90;99.90;;;;;;5096033;28;20025;-69
2021/05/29 01:21:58;;;;;;;25.65;15.23;;;8.90;99.90;;;;;;5095426;28;20024;-69
2021/05/29 01:24:25;;;;;;;21.90;16.35;;;8.90;99.90;;;;;;5095654;28;20016;-69
2021/05/29 01:26:53;;;;;;;22.00;15.63;;;8.90;99.90;;;;;;5095891;28;20054;-69
2021/05/29 01:29:19;;;;;;;21.23;14.82;;;8.90;99.90;;;;;;5095836;28;20026;-69
2021/05/29 01:31:50;;;;;;;22.42;14.32;;;8.90;99.90;;;;;;5095480;28;20434;-69
2021/05/29 01:34:21;;;;;;;26.70;14.52;;;8.90;99.90;;;;;;5095390;28;20057;-69
2021/05/29 01:36:48;;;;;;;26.52;17.33;;;8.80;99.90;;;;;;5094701;28;20020;-69
2021/05/29 01:39:13;;;;;;;26.60;16.42;;;8.80;99.90;;;;;;5095059;28;20031;-69
2021/05/29 01:41:39;;;;;;;30.70;18.58;;;9.00;99.90;;;;;;5095314;28;20016;-69
2021/05/29 01:44:08;;;;;;;33.45;19.33;;;9.00;99.90;;;;;;5095578;28;20080;-69
2021/05/29 01:46:34;;;;;;;25.27;17.30;;;9.00;99.90;;;;;;5095515;28;20028;-69
2021/05/29 01:48:59;;;;;;;27.83;17.63;;;8.80;99.90;;;;;;5095172;28;20480;-69
2021/05/29 01:51:25;;;;;;;25.77;19.38;;;8.80;99.90;;;;;;5094810;28;20036;-69
2021/05/29 01:53:52;;;;;;;27.73;19.52;;;8.80;99.90;;;;;;5095059;28;20024;-69
2021/05/29 01:56:18;;;;;;;33.17;21.77;;;8.80;99.90;;;;;;5095335;28;20101;-69
2021/05/29 01:58:45;;;;;;;30.90;20.67;;;8.90;99.90;;;;;;5094995;28;20020;-69
2021/05/29 02:04:36;;;;;;;26.15;18.92;;;8.80;99.90;;;;;;5094371;28;20028;-69
2021/05/29 02:07:01;;;;;;;26.67;19.00;;;8.60;99.90;;;;;;5094836;28;20461;-69
2021/05/29 02:09:27;;;;;;;27.33;19.38;;;8.50;99.90;;;;;;5095087;28;20054;-69
2021/05/29 02:11:52;;;;;;;30.10;21.60;;;8.50;99.90;;;;;;5094995;28;20368;-69
2021/05/29 02:14:18;;;;;;;30.58;21.02;;;8.50;99.90;;;;;;5094240;28;20055;-69
2021/05/29 02:16:43;;;;;;;38.75;24.73;;;8.50;99.90;;;;;;5094662;28;20508;-69
2021/05/29 02:19:09;;;;;;;38.20;23.45;;;8.60;99.90;;;;;;5094612;28;20470;-69
2021/05/29 02:21:35;;;;;;;43.17;28.65;;;8.50;99.90;;;;;;5094565;28;20095;-69
2021/05/29 02:24:00;;;;;;;40.28;25.67;;;8.70;99.90;;;;;;5094567;28;20427;-69
2021/05/29 02:26:26;;;;;;;40.50;26.60;;;8.70;99.90;;;;;;5094468;28;20481;-69
2021/05/29 02:28:55;;;;;;;45.92;27.75;;;8.60;99.90;;;;;;5094724;28;20078;-69
2021/05/29 02:31:22;;;;;;;41.28;27.45;;;8.70;99.90;;;;;;5094424;28;20031;-68
2021/05/29 02:33:48;;;;;;;43.50;27.50;;;8.70;99.90;;;;;;5094306;28;20028;-69
2021/05/29 02:36:15;;;;;;;41.90;27.65;;;8.60;99.90;;;;;;5094308;28;20027;-69
2021/05/29 02:38:40;;;;;;;41.38;25.73;;;8.60;99.90;;;;;;5094274;28;20114;-69
2021/05/29 02:41:09;;;;;;;36.42;25.40;;;8.60;99.90;;;;;;5094521;28;20101;-69
2021/05/29 02:43:36;;;;;;;38.35;25.05;;;8.60;99.90;;;;;;5094489;28;20043;-69
2021/05/29 02:46:01;;;;;;;40.78;24.55;;;8.50;99.90;;;;;;5094504;28;20035;-70
2021/05/29 02:48:27;;;;;;;42.08;26.83;;;8.50;99.90;;;;;;5093932;28;20036;-69
2021/05/29 02:50:53;;;;;;;42.45;27.52;;;8.50;99.90;;;;;;5093826;28;20489;-69
2021/05/29 02:53:18;;;;;;;38.10;26.02;;;8.40;99.90;;;;;;5093026;28;20031;-69
2021/05/29 02:55:45;;;;;;;34.72;24.65;;;8.40;99.90;;;;;;5093638;28;20451;-69
2021/05/29 02:58:11;;;;;;;42.03;23.35;;;8.30;99.90;;;;;;5094308;28;20066;-68
2021/05/29 03:00:40;;;;;;;45.97;25.83;;;8.20;99.90;;;;;;5093707;28;20016;-69
2021/05/29 03:03:07;;;;;;;39.30;26.10;;;8.20;99.90;;;;;;5094226;28;20024;-69
2021/05/29 03:05:34;;;;;;;38.15;25.60;;;8.20;99.90;;;;;;5093645;28;20416;-69
2021/05/29 03:08:00;;;;;;;38.85;26.38;;;8.10;99.90;;;;;;5093035;28;20512;-69
2021/05/29 03:10:26;;;;;;;44.60;26.73;;;8.10;99.90;;;;;;5093817;28;20063;-69
2021/05/29 03:12:52;;;;;;;38.22;25.83;;;8.10;99.90;;;;;;5093313;28;20440;-69
2021/05/29 03:15:23;;;;;;;40.22;26.63;;;8.10;99.90;;;;;;5093578;28;20050;-69
2021/05/29 03:17:49;;;;;;;38.65;25.52;;;8.00;99.90;;;;;;5094081;28;20016;-69
2021/05/29 03:20:19;;;;;;;39.47;25.02;;;8.00;99.90;;;;;;5094053;28;20026;-69
2021/05/29 03:22:45;;;;;;;39.08;26.98;;;8.00;99.90;;;;;;5094036;28;20016;-69
2021/05/29 03:25:13;;;;;;;45.90;27.77;;;8.00;99.90;;;;;;5093760;28;20409;-69
2021/05/29 03:27:39;;;;;;;40.60;26.35;;;8.00;99.90;;;;;;5093991;28;20016;-69
2021/05/29 03:30:07;;;;;;;44.03;27.08;;;8.00;99.90;;;;;;5093979;28;20417;-69
2021/05/29 03:32:32;;;;;;;37.63;25.90;;;7.90;99.90;;;;;;5093593;28;20473;-69
2021/05/29 03:34:58;;;;;;;38.67;25.50;;;7.90;99.90;;;;;;5094007;28;20028;-69
2021/05/29 03:37:23;;;;;;;34.13;24.35;;;7.90;99.90;;;;;;5093911;28;20034;-69
2021/05/29 03:39:49;;;;;;;38.05;25.73;;;7.80;99.90;;;;;;5093930;28;20354;-69
2021/05/29 03:42:15;;;;;;;38.20;24.73;;;7.90;99.90;;;;;;5093597;28;20044;-69
2021/05/29 03:44:40;;;;;;;33.63;24.00;;;7.90;99.90;;;;;;5093847;28;20365;-69
2021/05/29 03:47:06;;;;;;;36.47;25.48;;;7.80;99.90;;;;;;5093886;28;20032;-69
2021/05/29 03:49:31;;;;;;;40.45;26.50;;;7.80;99.90;;;;;;5092350;28;20060;-68
2021/05/29 03:51:57;;;;;;;40.63;27.02;;;7.90;99.90;;;;;;5093494;28;20032;-68
2021/05/29 03:54:23;;;;;;;44.97;28.33;;;7.90;99.90;;;;;;5093672;28;20032;-69
2021/05/29 03:56:48;;;;;;;47.53;28.73;;;8.00;99.90;;;;;;5093743;28;20028;-69
2021/05/29 03:59:15;;;;;;;43.00;28.50;;;8.10;99.90;;;;;;5093148;28;20024;-68
2021/05/29 04:01:41;;;;;;;47.88;29.20;;;8.10;99.90;;;;;;5096940;28;20020;-69
2021/05/29 04:04:07;;;;;;;48.20;27.33;;;8.20;99.90;;;;;;5097253;28;20020;-70
2021/05/29 04:06:33;;;;;;;44.10;28.52;;;8.20;99.90;;;;;;5096892;28;20048;-69
2021/05/29 04:08:59;;;;;;;40.97;26.58;;;8.30;99.90;;;;;;5097154;28;20542;-69
2021/05/29 04:11:24;;;;;;;41.33;25.67;;;8.30;99.90;;;;;;5097065;28;20153;-69
2021/05/29 04:13:50;;;;;;;43.33;25.90;;;8.30;99.90;;;;;;5096735;28;20080;-69
2021/05/29 04:16:16;;;;;;;39.15;25.58;;;8.40;99.90;;;;;;5097267;28;20023;-69
2021/05/29 04:18:41;;;;;;;41.65;25.65;;;8.40;99.90;;;;;;5096861;28;20368;-69
2021/05/29 04:21:07;;;;;;;36.42;24.38;;;8.50;99.90;;;;;;5097108;28;20024;-69
2021/05/29 04:23:32;;;;;;;36.42;23.38;;;8.70;99.90;;;;;;5097065;28;20032;-69
2021/05/29 04:25:58;;;;;;;33.95;22.10;;;8.80;99.90;;;;;;5096517;28;20107;-69
2021/05/29 04:28:23;;;;;;;32.28;22.00;;;8.90;99.90;;;;;;5096976;28;20108;-69
2021/05/29 04:30:49;;;;;;;34.03;21.13;;;9.00;99.90;;;;;;5096976;28;20488;-69
2021/05/29 04:33:15;;;;;;;34.67;22.75;;;9.20;99.90;;;;;;5096809;28;20475;-69
2021/05/29 04:35:40;;;;;;;31.48;20.63;;;9.50;99.90;;;;;;5096284;28;20032;-69
2021/05/29 04:38:06;;;;;;;26.13;18.98;;;9.80;99.90;;;;;;5096528;28;20133;-69
2021/05/29 04:40:32;;;;;;;24.42;15.60;;;10.20;99.90;;;;;;5096817;28;20132;-69
2021/05/29 04:43:00;;;;;;;23.00;15.13;;;10.60;99.90;;;;;;5096755;28;20028;-69
2021/05/29 04:45:38;;;;;;;24.45;15.20;;;10.90;99.90;;;;;;5096738;28;20081;-69
2021/05/29 04:48:04;;;;;;;18.83;14.30;;;11.50;99.90;;;;;;5096702;28;20076;-69
2021/05/29 04:50:30;;;;;;;21.75;14.50;;;12.00;99.90;;;;;;5096636;28;20062;-69
2021/05/29 04:52:56;;;;;;;24.50;13.75;;;12.50;99.90;;;;;;5096489;28;20546;-69
2021/05/29 04:55:22;;;;;;;21.27;14.77;;;12.40;99.90;;;;;;5096531;28;20473;-69
2021/05/29 04:57:48;;;;;;;19.13;14.35;;;12.40;99.90;;;;;;5096494;28;20024;-69
2021/05/29 05:00:16;;;;;;;21.52;15.27;;;12.50;99.90;;;;;;5096412;28;20024;-70
2021/05/29 05:02:42;;;;;;;22.27;15.43;;;12.70;99.90;;;;;;5095847;28;20103;-70
2021/05/29 05:05:09;;;;;;;21.45;15.82;;;12.60;99.90;;;;;;5096329;28;20101;-69
2021/05/29 05:07:35;;;;;;;21.52;15.07;;;12.30;99.90;;;;;;5095986;28;20020;-69
2021/05/29 05:10:00;;;;;;;24.80;16.45;;;12.30;99.90;;;;;;5095713;28;20109;-69
2021/05/29 05:12:26;;;;;;;23.33;16.77;;;12.00;99.90;;;;;;5096469;28;20085;-69
2021/05/29 05:14:52;;;;;;;24.40;17.02;;;12.10;99.90;;;;;;5096100;28;20564;-69
2021/05/29 05:17:17;;;;;;;23.63;17.83;;;12.20;99.90;;;;;;5096120;28;20365;-69
2021/05/29 05:19:43;;;;;;;29.25;19.33;;;12.50;99.90;;;;;;5095799;28;20427;-70
2021/05/29 05:22:08;;;;;;;26.33;18.30;;;12.90;99.90;;;;;;5096043;28;20350;-70
2021/05/29 05:24:34;;;;;;;25.67;17.10;;;13.20;99.90;;;;;;5095425;28;20424;-69
2021/05/29 05:26:59;;;;;;;25.80;17.70;;;13.10;99.90;;;;;;5095977;28;20478;-70
2021/05/29 05:29:25;;;;;;;27.20;17.83;;;13.10;99.90;;;;;;5095868;28;20024;-69
2021/05/29 05:31:50;;;;;;;28.77;17.90;;;12.80;99.90;;;;;;5095547;28;20465;-69
2021/05/29 05:34:16;;;;;;;28.88;17.73;;;12.60;99.90;;;;;;5095665;28;20388;-69
2021/05/29 05:36:43;;;;;;;30.33;17.88;;;12.30;99.90;;;;;;5095722;28;20122;-70
2021/05/29 05:39:13;;;;;;;29.75;18.13;;;12.30;99.90;;;;;;5094276;28;20036;-70
2021/05/29 05:41:39;;;;;;;23.88;17.75;;;12.40;99.90;;;;;;5095101;28;20024;-69
2021/05/29 05:44:06;;;;;;;28.92;18.20;;;12.40;99.90;;;;;;5094578;28;20065;-69
2021/05/29 05:46:31;;;;;;;25.85;17.55;;;13.10;99.90;;;;;;5095554;28;20028;-69
2021/05/29 05:48:57;;;;;;;27.35;18.13;;;14.00;99.90;;;;;;5094903;28;20082;-70
2021/05/29 05:51:24;;;;;;;27.95;19.58;;;13.80;99.90;;;;;;5093973;28;20435;-69
2021/05/29 05:53:49;;;;;;;25.95;19.25;;;13.70;99.90;;;;;;5095016;28;20020;-69
2021/05/29 05:56:25;;;;;;;26.52;19.02;;;13.60;99.90;;;;;;5094788;28;20070;-69
2021/05/29 05:58:51;;;;;;;27.48;20.50;;;13.40;99.90;;;;;;5094085;28;20454;-69
2021/05/29 06:01:17;;;;;;;28.85;20.58;;;12.90;99.90;;;;;;5095243;28;20027;-69
2021/05/29 06:03:43;;;;;;;32.30;21.42;;;12.60;99.90;;;;;;5094581;28;20448;-69
2021/05/29 06:06:08;;;;;;;31.08;20.42;;;12.70;99.90;;;;;;5094533;28;20103;-69
2021/05/29 06:08:34;;;;;;;32.67;20.25;;;12.60;99.90;;;;;;5093276;28;20028;-69
2021/05/29 06:11:00;;;;;;;33.22;22.42;;;12.40;99.90;;;;;;5094931;28;20020;-69
2021/05/29 06:17:57;;;;;;;29.55;20.83;;;12.00;99.90;;;;;;5094194;28;20493;-69
2021/05/29 06:19:10;;;;;;;37.50;23.65;;;13.00;99.90;;;;;;5093979;28;20020;-69
2021/05/29 06:21:38;;;;;;;37.88;24.23;;;13.30;99.90;;;;;;5094460;28;20020;-69
2021/05/29 06:24:04;;;;;;;41.75;26.10;;;13.20;99.90;;;;;;5093874;28;20158;-69
2021/05/29 06:26:30;;;;;;;44.25;26.35;;;13.40;99.90;;;;;;5094642;28;20165;-69
2021/05/29 06:28:56;;;;;;;45.15;27.83;;;13.70;99.90;;;;;;5094286;28;20540;-70
2021/05/29 06:31:21;;;;;;;53.70;30.83;;;14.40;99.90;;;;;;5094476;28;20035;-70
2021/05/29 06:33:47;;;;;;;51.67;31.52;;;14.80;99.90;;;;;;5094271;28;20055;-70
2021/05/29 06:36:12;;;;;;;55.08;32.88;;;14.70;99.90;;;;;;5094368;28;20100;-70
2021/05/29 06:38:38;;;;;;;55.55;32.92;;;14.80;99.90;;;;;;5093802;28;20024;-70
2021/05/29 06:41:04;;;;;;;61.45;35.45;;;15.30;99.90;;;;;;5094019;28;20024;-70
2021/05/29 06:43:29;;;;;;;58.95;33.25;;;15.30;99.90;;;;;;5094131;28;20541;-70
2021/05/29 06:45:55;;;;;;;57.80;32.15;;;15.40;99.90;;;;;;5093730;28;20028;-70
2021/05/29 06:48:21;;;;;;;50.00;31.17;;;16.00;99.90;;;;;;5093783;28;20111;-69
2021/05/29 06:50:52;;;;;;;48.85;32.20;;;17.40;99.90;;;;;;5093924;28;20042;-70
2021/05/29 06:53:25;;;;;;;49.90;31.27;;;17.50;99.90;;;;;;5094219;28;20437;-70
2021/05/29 06:58:47;;;;;;;50.55;32.65;;;16.30;99.90;;;;;;5093525;28;20020;-70
2021/05/29 07:01:12;;;;;;;48.58;31.48;;;15.40;99.90;;;;;;5094198;28;20031;-70
2021/05/29 07:03:38;;;;;;;49.58;31.15;;;14.70;99.90;;;;;;5093910;28;20028;-70
2021/05/29 07:06:03;;;;;;;48.70;31.15;;;14.50;99.90;;;;;;5094158;28;20073;-70
2021/05/29 07:08:29;;;;;;;49.75;30.73;;;14.20;99.90;;;;;;5093793;28;20111;-69
2021/05/29 07:10:54;;;;;;;49.08;31.95;;;14.00;99.90;;;;;;5093773;28;20465;-70
2021/05/29 07:13:20;;;;;;;49.55;30.02;;;13.80;99.90;;;;;;5093526;28;20040;-70
2021/05/29 07:15:45;;;;;;;39.22;26.65;;;14.00;99.90;;;;;;5094386;28;20051;-69
2021/05/29 07:18:12;;;;;;;37.08;24.48;;;13.90;99.90;;;;;;5093706;28;20383;-69
2021/05/29 07:20:40;;;;;;;43.50;26.88;;;13.90;99.90;;;;;;5094001;28;20088;-69
2021/05/29 07:23:06;;;;;;;35.80;23.63;;;13.40;99.90;;;;;;5092706;28;20112;-69
2021/05/29 07:25:31;;;;;;;35.25;23.63;;;13.20;99.90;;;;;;5093874;28;20410;-69
2021/05/29 07:27:57;;;;;;;38.40;24.15;;;13.20;99.90;;;;;;5093814;28;20428;-71
2021/05/29 07:30:23;;;;;;;36.45;23.65;;;13.20;99.90;;;;;;5093558;28;20423;-71
2021/05/29 07:32:49;;;;;;;36.72;23.73;;;13.40;99.90;;;;;;5093697;28;20377;-71
2021/05/29 07:35:15;;;;;;;40.05;24.08;;;13.60;99.90;;;;;;5095506;28;20030;-70
2021/05/29 07:37:41;;;;;;;34.67;22.05;;;13.50;99.90;;;;;;5097673;28;20023;-70
2021/05/29 07:40:07;;;;;;;34.25;22.17;;;13.70;99.90;;;;;;5097551;28;20043;-73
2021/05/29 07:42:33;;;;;;;31.52;20.45;;;13.50;99.90;;;;;;5097862;28;20514;-70
2021/05/29 07:44:58;;;;;;;33.83;18.27;;;13.50;99.90;;;;;;5097899;28;20032;-71
2021/05/29 07:47:24;;;;;;;31.60;19.17;;;13.50;99.90;;;;;;5097639;28;20076;-71
2021/05/29 07:49:49;;;;;;;27.88;18.23;;;13.50;99.90;;;;;;5097234;28;20054;-71
2021/05/29 07:52:15;;;;;;;22.83;16.40;;;13.60;99.90;;;;;;5097523;28;20110;-71
2021/05/29 07:54:41;;;;;;;29.58;18.17;;;13.60;99.90;;;;;;5097592;28;20020;-70
2021/05/29 07:57:09;;;;;;;37.13;21.05;;;13.40;99.90;;;;;;5097607;28;20474;-71
2021/05/29 07:59:36;;;;;;;32.70;20.20;;;13.50;99.90;;;;;;5097611;28;20024;-71
2021/05/29 08:02:03;;;;;;;26.80;17.27;;;13.60;99.90;;;;;;5097584;28;20050;-71
2021/05/29 08:04:29;;;;;;;24.48;14.70;;;13.80;99.90;;;;;;5096961;28;20516;-71
2021/05/29 08:06:54;;;;;;;23.30;13.93;;;13.50;99.90;;;;;;5097195;28;20032;-71
2021/05/29 08:09:20;;;;;;;19.40;14.60;;;13.60;99.90;;;;;;5095724;28;20055;-71
2021/05/29 08:11:45;;;;;;;19.60;13.30;;;13.70;99.90;;;;;;5097405;28;20469;-71
2021/05/29 08:14:12;;;;;;;22.02;13.23;;;14.00;99.90;;;;;;5096702;28;20048;-71
2021/05/29 08:16:40;;;;;;;20.02;13.40;;;14.00;99.90;;;;;;5097317;28;20017;-71
2021/05/29 08:19:09;;;;;;;19.73;13.35;;;14.00;99.90;;;;;;5097023;28;20028;-70
2021/05/29 08:21:35;;;;;;;20.90;13.75;;;13.80;99.90;;;;;;5096606;28;20377;-70
2021/05/29 08:24:01;;;;;;;20.88;13.60;;;13.50;99.90;;;;;;5096615;28;20031;-71
2021/05/29 08:26:27;;;;;;;24.45;15.75;;;13.30;99.90;;;;;;5097120;28;20024;-71
2021/05/29 08:28:54;;;;;;;24.63;16.45;;;13.00;99.90;;;;;;5096768;28;20477;-71
2021/05/29 08:31:20;;;;;;;26.00;17.13;;;12.80;99.90;;;;;;5096995;28;20028;-71
2021/05/29 08:33:45;;;;;;;23.58;14.85;;;12.90;99.90;;;;;;5096925;28;20365;-70
2021/05/29 08:36:11;;;;;;;28.30;16.10;;;12.70;99.90;;;;;;5096916;28;20020;-70
2021/05/29 08:38:37;;;;;;;21.30;14.80;;;12.70;99.90;;;;;;5096840;28;20063;-71
2021/05/29 08:41:05;;;;;;;23.63;14.80;;;12.60;99.90;;;;;;5096540;28;20097;-71
2021/05/29 08:43:30;;;;;;;22.48;14.07;;;12.70;99.90;;;;;;5096802;28;20023;-71
2021/05/29 08:45:56;;;;;;;20.52;13.77;;;12.80;99.90;;;;;;5096269;28;20024;-71
2021/05/29 08:48:21;;;;;;;21.83;13.63;;;12.90;99.90;;;;;;5095449;28;20131;-71
2021/05/29 08:51:19;;;;;;;21.45;13.73;;;12.90;99.90;;;;;;5096611;28;20024;-71
2021/05/29 08:53:34;;;;;;;18.23;12.90;;;13.20;99.90;;;;;;5095751;28;20478;-71
2021/05/29 08:55:59;;;;;;;17.90;13.13;;;13.20;99.90;;;;;;5096493;28;20056;-71
2021/05/29 08:58:26;;;;;;;18.67;12.02;;;13.40;99.90;;;;;;5096468;28;20024;-70
2021/05/29 09:00:52;;;;;;;19.27;12.32;;;13.70;99.90;;;;;;5096208;28;20050;-71
2021/05/29 09:03:18;;;;;;;27.13;14.40;;;13.60;99.90;;;;;;5096184;28;20024;-71
2021/05/29 09:05:49;;;;;;;21.58;14.88;;;13.50;99.90;;;;;;5096332;28;20024;-71
2021/05/29 09:08:15;;;;;;;19.38;12.18;;;13.70;99.90;;;;;;5096037;28;20032;-71
2021/05/29 09:10:58;;;;;;;18.88;12.38;;;14.00;99.90;;;;;;5094858;28;20024;-71
2021/05/29 09:13:25;;;;;;;;;;;14.00;99.90;;;;;;5095890;28;20052;-71
2021/05/29 09:15:58;;;;;;;16.92;10.70;;;14.40;99.90;;;;;;5094129;28;20262;-71
2021/05/29 09:18:29;;;;;;;16.90;9.65;;;14.40;99.90;;;;;;5095909;28;20019;-71
2021/05/29 09:21:19;;;;;;;14.07;10.27;;;14.20;99.90;;;;;;5096037;28;20020;-71
2021/05/29 09:23:50;;;;;;;15.52;10.63;;;14.40;99.90;;;;;;5095934;28;20024;-71
2021/05/29 09:26:16;;;;;;;16.55;10.82;;;14.50;99.90;;;;;;5095881;28;20044;-71
2021/05/29 09:28:43;;;;;;;14.48;10.43;;;14.80;99.90;;;;;;5095593;28;20405;-71
2021/05/29 09:31:14;;;;;;;15.02;10.38;;;15.30;99.90;;;;;;5095878;28;20020;-71
2021/05/29 09:33:41;;;;;;;15.13;10.40;;;15.40;99.90;;;;;;5095437;28;20024;-71
2021/05/29 09:36:11;;;;;;;17.52;10.43;;;15.00;99.90;;;;;;5095138;28;20524;-71
2021/05/29 09:38:46;;;;;;;15.05;10.98;;;14.80;99.90;;;;;;5095099;28;20039;-71
2021/05/29 09:41:24;;;;;;;19.50;11.98;;;14.70;99.90;;;;;;5095310;28;20031;-72
2021/05/29 09:43:56;;;;;;;18.27;12.15;;;14.20;99.90;;;;;;5095277;28;20461;-71
2021/05/29 09:46:22;;;;;;;19.13;11.80;;;13.90;99.90;;;;;;5095262;28;20028;-71
2021/05/29 09:51:32;;;;;;;18.77;11.55;;;13.90;99.90;;;;;;5112118;27;20453;-72
2021/05/29 09:54:08;;;;;;;17.77;11.45;;;14.10;99.90;;;;;;5110400;28;20028;-72
2021/05/29 09:56:40;;;;;;;17.63;11.90;;;14.20;99.90;;;;;;5111584;28;20061;-72
2021/05/29 09:59:07;;;;;;;18.30;12.02;;;14.30;99.90;;;;;;5111791;28;20024;-72
2021/05/29 10:01:46;;;;;;;16.80;11.35;;;14.20;99.90;;;;;;5111406;28;20012;-72
2021/05/29 10:06:57;;;;;;;25.55;11.38;;;14.10;99.90;;;;;;5112111;27;20404;-70
2021/05/29 10:09:23;;;;;;;17.95;10.93;;;14.60;99.90;;;;;;5111849;28;20035;-73
2021/05/29 10:11:49;;;;;;;16.05;11.30;;;14.60;99.90;;;;;;5111763;28;20039;-70
2021/05/29 10:14:15;;;;;;;19.20;11.93;;;14.50;99.90;;;;;;5111467;28;20032;-73
2021/05/29 10:16:41;;;;;;;19.40;11.05;;;14.50;99.90;;;;;;5111720;28;20056;-70
2021/05/29 10:19:08;;;;;;;15.82;10.75;;;14.70;99.90;;;;;;5111445;28;20055;-70
2021/05/29 10:21:36;;;;;;;14.00;10.35;;;15.00;99.90;;;;;;5111595;28;20369;-70
2021/05/29 10:24:03;;;;;;;17.05;11.20;;;15.30;99.90;;;;;;5111592;28;20020;-70
2021/05/29 10:26:30;;;;;;;16.77;10.52;;;15.50;99.90;;;;;;5110941;28;20035;-71
2021/05/29 10:28:56;;;;;;;16.13;11.10;;;16.00;99.90;;;;;;5110983;28;20016;-70
2021/05/29 10:31:27;;;;;;;17.88;11.55;;;16.20;99.90;;;;;;5111401;28;20149;-70
2021/05/29 10:33:53;;;;;;;16.38;11.23;;;16.20;99.90;;;;;;5111387;28;20023;-70
2021/05/29 10:36:57;;;;;;;17.40;11.23;;;15.90;99.90;;;;;;5111403;28;20028;-70
2021/05/29 10:39:25;;;;;;;14.95;11.10;;;16.10;99.90;;;;;;5110687;28;20030;-70
2021/05/29 10:42:00;;;;;;;16.52;11.70;;;15.70;99.90;;;;;;5111257;28;20020;-73
2021/05/29 10:44:29;;;;;;;15.23;11.30;;;15.80;99.90;;;;;;5110962;28;20082;-72
2021/05/29 10:47:12;;;;;;;16.17;10.63;;;16.00;99.90;;;;;;5111226;28;20028;-72
2021/05/29 10:49:56;;;;;;;14.10;10.52;;;16.40;99.90;;;;;;5111168;28;20103;-72
2021/05/29 10:58:05;;;;;;;14.32;9.85;;;16.60;99.90;;;;;;5071677;28;20407;-70
2021/05/29 11:06:00;;;;;;;14.50;9.88;;;16.70;99.90;;;;;;5091913;27;20695;-71
2021/05/29 11:08:47;;;;;;;15.40;10.25;;;16.80;99.90;;;;;;5091310;28;20044;-71
2021/05/29 11:11:41;;;;;;;16.50;9.85;;;17.10;99.90;;;;;;5091459;28;20034;-71
2021/05/29 11:14:09;;;;;;;13.50;9.75;;;16.80;99.90;;;;;;5091116;28;20032;-71
2021/05/29 11:19:32;;;;;;;13.25;10.25;;;16.90;99.90;;;;;;5112168;27;20381;-71
2021/05/29 11:22:16;;;;;;;13.55;9.82;;;16.80;99.90;;;;;;5111960;28;20020;-73
2021/05/29 11:24:56;;;;;;;16.25;10.18;;;17.30;99.90;;;;;;5110040;28;20027;-71
2021/05/29 11:30:11;;;;;;;13.10;10.05;;;17.60;99.90;;;;;;5071553;28;20415;-71
2021/05/29 11:32:53;;;;;;;15.20;10.20;;;16.40;99.90;;;;;;5071390;28;20075;-71
2021/05/29 11:35:28;;;;;;;16.90;10.98;;;16.50;99.90;;;;;;5071024;28;20035;-71
2021/05/29 11:41:11;;;;;;;13.73;9.82;;;17.20;99.90;;;;;;5091832;28;20744;-71
2021/05/29 11:43:53;;;;;;;14.03;10.03;;;17.10;99.90;;;;;;5090304;28;20051;-73
2021/05/29 11:46:21;;;;;;;15.10;10.55;;;16.60;99.90;;;;;;5091492;28;20255;-71
2021/05/29 11:48:55;;;;;;;14.63;10.02;;;16.90;99.90;;;;;;5091231;28;20031;-71
2021/05/29 11:51:21;;;;;;;13.68;9.98;;;17.10;99.90;;;;;;5090864;28;20016;-70
2021/05/29 11:56:39;;;;;;;14.68;10.15;;;17.10;99.90;;;;;;5091769;27;20356;-73
2021/05/29 11:59:07;;;;;;;13.50;9.80;;;16.70;99.90;;;;;;5091548;28;20028;-72
2021/05/29 12:01:35;;;;;;;15.13;9.20;;;17.30;99.90;;;;;;5091269;28;20031;-73
2021/05/29 12:04:06;;;;;;;12.13;9.50;;;17.50;99.90;;;;;;5091125;28;20051;-73
2021/05/29 12:06:51;;;;;;;16.63;10.48;;;17.30;99.90;;;;;;5090770;28;20070;-73
2021/05/29 12:09:19;;;;;;;13.85;10.02;;;17.10;99.90;;;;;;5091058;28;20020;-73
2021/05/29 12:11:47;;;;;;;12.73;10.05;;;17.30;99.90;;;;;;5090943;28;20043;-73
2021/05/29 12:14:16;;;;;;;14.98;9.68;;;17.50;99.90;;;;;;5091192;28;20103;-72
2021/05/29 12:17:09;;;;;;;12.27;9.25;;;17.50;99.90;;;;;;5090896;28;20017;-73
2021/05/29 12:19:40;;;;;;;13.88;9.50;;;16.90;99.90;;;;;;5090371;28;20017;-72
2021/05/29 12:22:10;;;;;;;14.30;10.18;;;16.60;99.90;;;;;;5090843;28;20024;-72
2021/05/29 12:24:38;;;;;;;16.33;10.55;;;16.50;99.90;;;;;;5090825;28;20020;-73
2021/05/29 12:27:05;;;;;;;14.65;10.07;;;16.80;99.90;;;;;;5091053;28;20025;-72
2021/05/29 12:29:30;;;;;;;12.98;9.65;;;17.30;99.90;;;;;;5090383;28;20021;-72
2021/05/29 12:31:59;;;;;;;14.48;9.80;;;17.20;99.90;;;;;;5090551;28;20036;-73
2021/05/29 12:34:26;;;;;;;13.35;10.13;;;16.60;99.90;;;;;;5090823;28;20020;-72
2021/05/29 12:37:01;;;;;;;13.73;9.98;;;16.40;99.90;;;;;;5090570;28;20461;-72
2021/05/29 12:39:49;;;;;;;12.25;9.27;;;17.10;99.90;;;;;;5089349;28;20032;-73
2021/05/29 12:42:20;;;;;;;11.73;9.25;;;18.30;99.90;;;;;;5090213;28;20469;-73
2021/05/29 12:44:48;;;;;;;13.60;10.00;;;18.30;99.90;;;;;;5090706;28;20454;-73
2021/05/29 12:47:21;;;;;;;15.90;9.90;;;17.50;99.90;;;;;;5090647;28;20029;-73
2021/05/29 12:49:47;;;;;;;13.70;11.10;;;17.30;99.90;;;;;;5090576;28;20024;-72
2021/05/29 12:52:23;;;;;;;13.43;10.43;;;17.20;99.90;;;;;;5090254;28;20028;-73
2021/05/29 12:54:49;;;;;;;11.73;10.05;;;17.40;99.90;;;;;;5088506;28;20047;-73
2021/05/29 12:57:15;;;;;;;14.50;11.20;;;17.40;99.90;;;;;;5090471;28;20107;-72
2021/05/29 12:59:41;;;;;;;14.65;9.23;;;17.40;99.90;;;;;;5090457;28;20035;-72
2021/05/29 13:07:46;;;;;;;14.18;10.60;;;17.80;99.90;;;;;;5111125;28;20059;-71
2021/05/29 13:13:03;;;;;;;14.85;10.77;;;17.80;99.90;;;;;;5071540;28;20353;-71
2021/05/29 13:15:38;;;;;;;16.67;11.88;;;17.70;99.90;;;;;;5070627;28;20111;-71
2021/05/29 13:18:12;;;;;;;16.02;10.95;;;17.80;99.90;;;;;;5069711;28;20511;-71
2021/05/29 13:20:40;;;;;;;15.93;11.02;;;17.30;99.90;;;;;;5071181;28;20075;-71
2021/05/29 13:23:06;;;;;;;13.18;10.40;;;16.90;99.90;;;;;;5070805;28;20051;-71